createdAt,value
2019-04-22T00:00:53.747Z,0.00
2019-04-22T00:01:57.848Z,0.00
2019-04-22T00:02:57.523Z,0.00
2019-04-22T00:04:00.652Z,0.00
2019-04-22T00:05:01.058Z,0.00
2019-04-22T00:06:16.574Z,0.00
2019-04-22T00:07:15.917Z,0.00
2019-04-22T00:08:16.487Z,0.00
2019-04-22T00:09:17.791Z,0.00
2019-04-22T00:10:19.350Z,0.00
2019-04-22T00:11:18.107Z,0.00
2019-04-22T00:12:22.361Z,0.00
2019-04-22T00:13:22.190Z,0.00
2019-04-22T00:14:11.661Z,0.00
2019-04-22T00:15:12.291Z,0.00
2019-04-22T00:16:19.286Z,0.00
2019-04-22T00:17:22.909Z,0.00
2019-04-22T00:18:19.927Z,0.00
2019-04-22T00:20:14.386Z,0.00
2019-04-22T00:21:19.715Z,0.00
2019-04-22T00:24:17.002Z,0.00
2019-04-22T00:25:19.939Z,0.00
2019-04-22T00:26:20.727Z,0.00
2019-04-22T00:27:24.097Z,0.00
2019-04-22T00:28:19.569Z,0.00
2019-04-22T00:29:39.163Z,0.00
2019-04-22T00:30:18.193Z,0.00
2019-04-22T00:31:19.188Z,0.00
2019-04-22T00:32:11.362Z,0.00
2019-04-22T00:33:15.466Z,0.00
2019-04-22T00:34:10.833Z,0.00
2019-04-22T00:35:14.731Z,0.00
2019-04-22T00:36:16.643Z,0.00
2019-04-22T00:37:17.185Z,0.00
2019-04-22T00:38:17.242Z,0.00
2019-04-22T00:39:22.078Z,0.00
2019-04-22T00:40:19.703Z,0.00
2019-04-22T00:41:15.209Z,0.00
2019-04-22T00:42:14.731Z,0.00
2019-04-22T00:43:19.772Z,0.00
2019-04-22T00:44:22.258Z,0.00
2019-04-22T00:45:21.874Z,0.00
2019-04-22T00:46:17.754Z,0.00
2019-04-22T00:47:17.990Z,0.00
2019-04-22T00:48:24.913Z,0.00
2019-04-22T00:50:19.081Z,0.00
2019-04-22T00:52:16.561Z,0.00
2019-04-22T00:53:16.447Z,0.00
2019-04-22T00:54:15.671Z,0.00
2019-04-22T00:57:15.401Z,0.00
2019-04-22T00:58:15.860Z,0.00
2019-04-22T00:59:13.160Z,0.00
2019-04-22T01:00:17.628Z,0.00
2019-04-22T01:02:18.117Z,0.00
2019-04-22T01:03:19.690Z,0.00
2019-04-22T01:04:25.647Z,0.00
2019-04-22T01:05:09.815Z,0.00
2019-04-22T01:06:17.343Z,0.00
2019-04-22T01:07:13.066Z,0.00
2019-04-22T01:08:23.430Z,0.00
2019-04-22T01:09:33.002Z,0.00
2019-04-22T01:10:20.383Z,0.00
2019-04-22T01:11:20.626Z,0.00
2019-04-22T01:12:20.944Z,0.00
2019-04-22T01:13:16.676Z,0.00
2019-04-22T01:14:19.025Z,0.00
2019-04-22T01:15:17.921Z,0.00
2019-04-22T01:16:17.758Z,0.00
2019-04-22T01:17:12.001Z,0.00
2019-04-22T01:18:09.295Z,0.00
2019-04-22T01:19:16.132Z,0.00
2019-04-22T01:20:38.809Z,0.00
2019-04-22T01:22:13.342Z,0.00
2019-04-22T01:23:14.213Z,0.00
2019-04-22T01:24:08.834Z,0.00
2019-04-22T01:25:08.082Z,0.00
2019-04-22T01:26:01.075Z,0.00
2019-04-22T01:27:02.905Z,0.00
2019-04-22T01:28:06.384Z,0.00
2019-04-22T01:29:00.854Z,0.00
2019-04-22T01:30:00.689Z,0.00
2019-04-22T01:30:59.454Z,0.00
2019-04-22T01:31:50.950Z,0.00
2019-04-22T01:32:52.352Z,0.00
2019-04-22T01:34:08.339Z,0.00
2019-04-22T01:35:03.470Z,0.00
2019-04-22T01:36:08.929Z,0.00
2019-04-22T01:37:09.074Z,0.00
2019-04-22T01:38:07.865Z,0.00
2019-04-22T01:39:16.383Z,0.00
2019-04-22T01:40:19.026Z,0.00
2019-04-22T01:41:20.467Z,0.00
2019-04-22T01:42:10.836Z,0.00
2019-04-22T01:43:16.756Z,0.00
2019-04-22T01:44:22.576Z,0.00
2019-04-22T01:45:19.394Z,0.00
2019-04-22T01:46:16.315Z,0.00
2019-04-22T01:47:18.537Z,0.00
2019-04-22T01:48:17.634Z,0.00
2019-04-22T01:49:17.378Z,0.00
2019-04-22T01:50:16.699Z,0.00
2019-04-22T01:51:07.617Z,0.00
2019-04-22T01:52:15.845Z,0.00
2019-04-22T01:53:24.671Z,0.00
2019-04-22T01:54:26.673Z,0.00
2019-04-22T01:55:17.481Z,0.00
2019-04-22T01:56:13.633Z,0.00
2019-04-22T01:57:15.892Z,0.00
2019-04-22T01:58:13.276Z,0.00
2019-04-22T01:59:05.090Z,0.00
2019-04-22T02:00:09.070Z,0.00
2019-04-22T02:01:16.061Z,0.00
2019-04-22T02:02:16.169Z,0.00
2019-04-22T02:03:17.322Z,0.00
2019-04-22T02:04:19.069Z,0.00
2019-04-22T02:05:17.761Z,0.00
2019-04-22T02:06:17.252Z,0.00
2019-04-22T02:07:16.881Z,0.00
2019-04-22T02:08:25.273Z,0.00
2019-04-22T02:10:20.056Z,0.00
2019-04-22T02:11:24.110Z,0.00
2019-04-22T02:12:19.581Z,0.00
2019-04-22T02:13:15.961Z,0.00
2019-04-22T02:14:19.956Z,0.00
2019-04-22T02:15:17.170Z,0.00
2019-04-22T02:16:15.212Z,0.00
2019-04-22T02:17:22.510Z,0.00
2019-04-22T02:18:22.957Z,0.00
2019-04-22T02:19:19.183Z,0.00
2019-04-22T02:20:23.210Z,0.00
2019-04-22T02:21:16.733Z,0.00
2019-04-22T02:22:27.545Z,0.00
2019-04-22T02:23:33.226Z,0.00
2019-04-22T02:24:20.053Z,0.00
2019-04-22T02:25:18.537Z,0.00
2019-04-22T02:27:17.674Z,0.00
2019-04-22T02:28:30.266Z,0.00
2019-04-22T02:29:14.995Z,0.00
2019-04-22T02:30:16.268Z,0.00
2019-04-22T02:32:27.275Z,0.00
2019-04-22T02:33:42.453Z,0.00
2019-04-22T02:35:28.363Z,0.00
2019-04-22T02:36:24.401Z,0.00
2019-04-22T02:37:21.211Z,0.00
2019-04-22T02:38:35.028Z,0.00
2019-04-22T02:40:21.391Z,0.00
2019-04-22T02:42:18.850Z,0.00
2019-04-22T02:43:34.121Z,0.00
2019-04-22T02:45:21.016Z,0.00
2019-04-22T02:46:48.613Z,0.00
2019-04-22T02:48:39.964Z,0.00
2019-04-22T02:50:19.745Z,0.00
2019-04-22T02:51:21.845Z,0.00
2019-04-22T02:53:30.033Z,0.00
2019-04-22T02:55:21.055Z,0.00
2019-04-22T02:58:27.243Z,0.00
2019-04-22T02:59:14.703Z,0.00
2019-04-22T03:00:25.050Z,0.00
2019-04-22T03:02:19.643Z,0.00
2019-04-22T03:07:14.744Z,0.00
2019-04-22T03:09:18.045Z,0.00
2019-04-22T03:10:24.587Z,0.00
2019-04-22T03:11:18.915Z,0.00
2019-04-22T03:12:29.063Z,0.00
2019-04-22T03:14:13.287Z,0.00
2019-04-22T03:15:11.645Z,0.00
2019-04-22T03:19:26.188Z,0.00
2019-04-22T03:21:17.567Z,4.00
2019-04-22T03:22:16.943Z,0.00
2019-04-22T03:23:27.326Z,0.00
2019-04-22T03:27:30.076Z,4.00
2019-04-22T03:28:23.652Z,4.00
2019-04-22T03:29:11.231Z,4.00
2019-04-22T03:31:34.199Z,8.00
2019-04-22T03:36:58.318Z,16.00
2019-04-22T03:38:25.454Z,20.00
2019-04-22T03:41:28.857Z,32.00
2019-04-22T03:42:17.611Z,36.00
2019-04-22T03:43:27.426Z,40.00
2019-04-22T03:45:27.184Z,52.00
2019-04-22T03:46:21.491Z,60.00
2019-04-22T03:47:33.621Z,68.00
2019-04-22T03:49:30.787Z,84.00
2019-04-22T03:51:27.628Z,104.00
2019-04-22T03:52:15.882Z,112.00
2019-04-22T03:53:29.166Z,124.00
2019-04-22T03:54:29.185Z,136.00
2019-04-22T03:55:15.169Z,152.00
2019-04-22T03:56:37.310Z,160.00
2019-04-22T03:58:08.227Z,188.00
2019-04-22T03:59:26.860Z,204.00
2019-04-22T04:00:30.830Z,216.00
2019-04-22T04:01:34.085Z,236.00
2019-04-22T04:02:28.966Z,252.00
2019-04-22T04:03:11.998Z,268.00
2019-04-22T04:04:32.602Z,284.00
2019-04-22T04:06:17.386Z,316.00
2019-04-22T04:08:26.764Z,356.00
2019-04-22T04:10:30.029Z,388.00
2019-04-22T04:11:29.699Z,408.00
2019-04-22T04:14:33.471Z,464.00
2019-04-22T04:15:21.163Z,480.00
2019-04-22T04:16:24.440Z,496.00
2019-04-22T04:17:22.472Z,516.00
2019-04-22T04:18:20.777Z,536.00
2019-04-22T04:19:31.372Z,556.00
2019-04-22T04:21:26.622Z,588.00
2019-04-22T04:22:38.051Z,604.00
2019-04-22T04:23:30.885Z,624.00
2019-04-22T04:24:32.752Z,640.00
2019-04-22T04:26:33.597Z,680.00
2019-04-22T04:27:37.050Z,692.00
2019-04-22T04:30:21.594Z,732.00
2019-04-22T04:31:25.543Z,748.00
2019-04-22T04:33:23.332Z,780.00
2019-04-22T04:34:28.524Z,796.00
2019-04-22T04:36:22.332Z,824.00
2019-04-22T04:38:11.483Z,856.00
2019-04-22T04:39:17.997Z,872.00
2019-04-22T04:42:37.197Z,908.00
2019-04-22T04:43:16.086Z,924.00
2019-04-22T04:44:42.023Z,940.00
2019-04-22T04:45:33.774Z,952.00
2019-04-22T04:46:27.228Z,968.00
2019-04-22T04:47:28.815Z,980.00
2019-04-22T04:48:21.023Z,992.00
2019-04-22T04:49:25.422Z,1008.00
2019-04-22T04:50:18.340Z,1020.00
2019-04-22T04:51:30.659Z,1032.00
2019-04-22T04:55:26.678Z,1080.00
2019-04-22T04:56:20.995Z,1092.00
2019-04-22T04:57:23.528Z,1104.00
2019-04-22T05:00:11.231Z,1132.00
2019-04-22T05:02:19.833Z,1164.00
2019-04-22T05:03:20.655Z,1176.00
2019-04-22T05:06:22.044Z,1208.00
2019-04-22T05:07:27.911Z,1220.00
2019-04-22T05:08:28.858Z,1228.00
2019-04-22T05:09:22.554Z,1240.00
2019-04-22T05:10:25.979Z,1252.00
2019-04-22T05:12:27.589Z,1272.00
2019-04-22T05:13:10.286Z,1284.00
2019-04-22T05:16:34.598Z,1316.00
2019-04-22T05:17:18.456Z,1328.00
2019-04-22T05:18:16.589Z,1340.00
2019-04-22T05:19:16.018Z,1352.00
2019-04-22T05:20:24.212Z,1360.00
2019-04-22T05:21:16.398Z,1372.00
2019-04-22T05:22:14.894Z,1380.00
2019-04-22T05:23:16.215Z,1392.00
2019-04-22T05:24:19.910Z,1404.00
2019-04-22T05:25:19.316Z,1408.00
2019-04-22T05:26:18.265Z,1424.00
2019-04-22T05:28:11.713Z,1444.00
2019-04-22T05:29:12.814Z,1456.00
2019-04-22T05:30:26.582Z,1468.00
2019-04-22T05:31:18.000Z,1480.00
2019-04-22T05:32:12.009Z,1496.00
2019-04-22T05:33:10.167Z,1508.00
2019-04-22T05:34:09.647Z,1520.00
2019-04-22T05:35:26.593Z,1536.00
2019-04-22T05:36:14.411Z,1548.00
2019-04-22T05:37:14.817Z,1564.00
2019-04-22T05:38:21.966Z,1576.00
2019-04-22T05:39:11.198Z,1584.00
2019-04-22T05:40:16.338Z,1596.00
2019-04-22T05:41:14.813Z,1608.00
2019-04-22T05:42:10.388Z,1620.00
2019-04-22T05:43:09.547Z,1628.00
2019-04-22T05:44:12.488Z,1640.00
2019-04-22T05:45:24.772Z,1652.00
2019-04-22T05:46:09.619Z,1664.00
2019-04-22T05:47:08.393Z,1680.00
2019-04-22T05:48:14.993Z,1692.00
2019-04-22T05:49:13.401Z,1704.00
2019-04-22T05:50:10.968Z,1720.00
2019-04-22T05:51:10.103Z,1732.00
2019-04-22T05:52:12.620Z,1744.00
2019-04-22T05:53:06.558Z,1760.00
2019-04-22T05:55:15.022Z,1796.00
2019-04-22T05:56:13.996Z,1808.00
2019-04-22T05:57:14.255Z,1824.00
2019-04-22T05:58:08.916Z,1836.00
2019-04-22T05:59:10.295Z,1852.00
2019-04-22T06:00:14.694Z,1872.00
2019-04-22T06:02:20.359Z,1896.00
2019-04-22T06:03:20.770Z,1912.00
2019-04-22T06:04:09.859Z,1928.00
2019-04-22T06:05:14.645Z,1944.00
2019-04-22T06:06:12.634Z,1956.00
2019-04-22T06:07:06.420Z,1968.00
2019-04-22T06:09:10.875Z,1996.00
2019-04-22T06:10:09.928Z,2012.00
2019-04-22T06:11:17.181Z,2028.00
2019-04-22T06:12:10.719Z,2044.00
2019-04-22T06:13:04.744Z,2068.00
2019-04-22T06:14:07.643Z,2084.00
2019-04-22T06:15:05.072Z,2100.00
2019-04-22T06:16:12.740Z,2116.00
2019-04-22T06:17:11.256Z,2132.00
2019-04-22T06:20:09.249Z,2188.00
2019-04-22T06:21:11.234Z,2204.00
2019-04-22T06:22:18.818Z,2220.00
2019-04-22T06:23:15.910Z,2240.00
2019-04-22T06:25:17.785Z,2280.00
2019-04-22T06:26:27.212Z,2300.00
2019-04-22T06:27:15.966Z,2320.00
2019-04-22T06:28:15.594Z,2340.00
2019-04-22T06:29:16.587Z,2360.00
2019-04-22T06:30:11.165Z,2376.00
2019-04-22T06:31:12.198Z,2396.00
2019-04-22T06:32:23.305Z,2416.00
2019-04-22T06:33:14.933Z,2432.00
2019-04-22T06:34:11.918Z,2448.00
2019-04-22T06:35:21.457Z,2472.00
2019-04-22T06:36:08.612Z,2492.00
2019-04-22T06:37:13.429Z,2516.00
2019-04-22T06:38:25.667Z,2536.00
2019-04-22T06:40:08.796Z,2568.00
2019-04-22T06:42:19.543Z,2616.00
2019-04-22T06:43:11.383Z,2640.00
2019-04-22T06:44:16.214Z,2672.00
2019-04-22T06:45:15.150Z,2708.00
2019-04-22T06:46:10.121Z,2744.00
2019-04-22T06:47:42.679Z,2780.00
2019-04-22T06:49:09.413Z,2852.00
2019-04-22T06:50:07.736Z,2892.00
2019-04-22T06:51:06.836Z,2940.00
2019-04-22T06:52:13.974Z,2992.00
2019-04-22T06:53:14.503Z,3116.00
2019-04-22T06:54:08.904Z,3260.00
2019-04-22T06:55:13.595Z,3372.00
2019-04-22T06:56:04.843Z,6056.00
2019-04-22T06:57:06.209Z,22432.00
2019-04-22T06:57:59.926Z,36960.00
2019-04-22T06:59:08.512Z,39264.00
2019-04-22T07:00:10.796Z,32032.00
2019-04-22T07:01:15.382Z,31616.00
2019-04-22T07:02:11.670Z,38688.00
2019-04-22T07:03:30.426Z,38048.00
2019-04-22T07:04:07.336Z,41408.00
2019-04-22T07:05:13.122Z,41280.00
2019-04-22T07:06:11.498Z,42432.00
2019-04-22T07:07:08.308Z,40992.00
2019-04-22T07:08:16.038Z,43840.00
2019-04-22T07:10:18.103Z,42688.00
2019-04-22T07:11:04.509Z,43680.00
2019-04-22T07:12:11.715Z,47456.00
2019-04-22T07:13:10.700Z,43936.00
2019-04-22T07:14:07.111Z,47744.00
2019-04-22T07:15:16.918Z,52960.00
2019-04-22T07:16:05.247Z,48032.00
2019-04-22T07:17:07.417Z,49760.00
2019-04-22T07:18:11.473Z,46784.00
2019-04-22T07:19:09.242Z,43008.00
2019-04-22T07:20:04.387Z,49824.00
2019-04-22T07:21:06.582Z,43584.00
2019-04-22T07:22:11.304Z,39040.00
2019-04-22T07:23:09.462Z,43936.00
2019-04-22T07:24:59.113Z,43744.00
2019-04-22T07:25:03.123Z,51264.00
2019-04-22T07:26:04.273Z,50976.00
2019-04-22T07:27:10.167Z,43648.00
2019-04-22T07:28:05.434Z,46912.00
2019-04-22T07:29:07.560Z,41600.00
2019-04-22T07:30:15.412Z,43968.00
2019-04-22T07:31:11.615Z,54336.00
2019-04-22T07:32:06.829Z,53280.00
2019-04-22T07:34:15.771Z,51840.00
2019-04-22T07:35:07.854Z,52736.00
2019-04-22T07:38:11.243Z,51040.00
2019-04-22T07:39:13.568Z,51584.00
2019-04-22T07:40:02.415Z,59552.00
2019-04-22T07:41:05.519Z,61216.00
2019-04-22T07:42:16.756Z,54272.00
2019-04-22T07:43:13.738Z,57280.00
2019-04-22T07:45:10.551Z,41120.00
2019-04-22T07:46:07.143Z,26112.00
2019-04-22T07:47:13.442Z,23584.00
2019-04-22T07:48:22.541Z,24736.00
2019-04-22T07:50:15.270Z,12800.00
2019-04-22T07:51:23.790Z,9432.00
2019-04-22T07:52:05.073Z,7872.00
2019-04-22T07:53:04.859Z,7648.00
2019-04-22T07:54:06.529Z,7536.00
2019-04-22T07:55:02.379Z,7476.00
2019-04-22T07:56:05.434Z,7440.00
2019-04-22T07:57:14.836Z,7448.00
2019-04-22T07:58:16.777Z,7428.00
2019-04-22T07:59:10.252Z,7412.00
2019-04-22T08:00:11.156Z,7368.00
2019-04-22T08:01:10.157Z,7444.00
2019-04-22T08:02:10.353Z,7416.00
2019-04-22T08:03:11.909Z,7476.00
2019-04-22T08:04:16.163Z,7584.00
2019-04-22T08:06:11.734Z,8364.00
2019-04-22T08:08:13.407Z,24384.00
2019-04-22T08:09:16.015Z,37088.00
2019-04-22T08:10:16.174Z,45440.00
2019-04-22T08:11:23.799Z,50784.00
2019-04-22T08:12:02.605Z,60352.00
2019-04-22T08:13:05.711Z,61888.00
2019-04-22T08:14:06.851Z,59776.00
2019-04-22T08:15:05.841Z,57632.00
2019-04-22T08:17:36.151Z,9208.00
2019-04-22T08:18:34.026Z,9396.00
2019-04-22T08:19:12.307Z,9264.00
2019-04-22T08:20:11.915Z,9148.00
2019-04-22T08:21:06.356Z,9044.00
2019-04-22T08:22:07.918Z,8920.00
2019-04-22T08:23:09.407Z,8800.00
2019-04-22T08:24:07.835Z,8700.00
2019-04-22T08:25:06.747Z,8580.00
2019-04-22T08:26:05.501Z,8468.00
2019-04-22T08:27:15.276Z,8344.00
2019-04-22T08:28:10.423Z,8236.00
2019-04-22T08:31:09.844Z,8040.00
2019-04-22T08:32:07.704Z,7964.00
2019-04-22T08:33:09.863Z,7900.00
2019-04-22T08:34:07.505Z,7812.00
2019-04-22T08:35:04.889Z,7776.00
2019-04-22T08:37:35.704Z,7716.00
2019-04-22T08:38:09.981Z,7660.00
2019-04-22T08:39:08.188Z,7680.00
2019-04-22T08:40:13.699Z,7724.00
2019-04-22T08:41:06.873Z,7656.00
2019-04-22T08:42:13.908Z,7600.00
2019-04-22T08:43:12.637Z,7540.00
2019-04-22T08:44:07.978Z,7516.00
2019-04-22T08:46:06.217Z,7484.00
2019-04-22T08:47:13.378Z,7472.00
2019-04-22T08:48:12.656Z,7444.00
2019-04-22T08:49:05.457Z,7452.00
2019-04-22T08:50:07.782Z,7440.00
2019-04-22T08:51:09.499Z,7448.00
2019-04-22T08:52:11.090Z,7448.00
2019-04-22T08:53:08.164Z,7468.00
2019-04-22T08:54:13.842Z,7512.00
2019-04-22T08:55:12.950Z,7472.00
2019-04-22T08:56:21.566Z,7504.00
2019-04-22T08:58:21.384Z,7508.00
2019-04-22T08:59:10.939Z,3880.00
2019-04-22T09:00:07.129Z,3952.00
2019-04-22T09:01:15.953Z,3868.00
2019-04-22T09:02:12.095Z,3948.00
2019-04-22T09:03:04.654Z,3976.00
2019-04-22T09:05:20.625Z,4004.00
2019-04-22T09:06:11.289Z,4028.00
2019-04-22T09:08:14.173Z,4052.00
2019-04-22T09:09:07.546Z,4092.00
2019-04-22T09:10:23.932Z,4012.00
2019-04-22T09:11:11.546Z,4116.00
2019-04-22T09:12:08.404Z,4136.00
2019-04-22T09:13:10.209Z,4136.00
2019-04-22T09:14:11.606Z,4152.00
2019-04-22T09:15:08.572Z,4156.00
2019-04-22T09:16:10.690Z,4196.00
2019-04-22T09:17:10.181Z,4200.00
2019-04-22T09:18:08.415Z,4220.00
2019-04-22T09:19:10.776Z,4252.00
2019-04-22T09:20:11.349Z,4264.00
2019-04-22T09:21:15.135Z,4284.00
2019-04-22T09:22:04.937Z,4292.00
2019-04-22T09:23:09.317Z,4328.00
2019-04-22T09:25:03.907Z,4340.00
2019-04-22T09:26:09.101Z,4404.00
2019-04-22T09:27:11.226Z,4420.00
2019-04-22T09:28:10.570Z,4464.00
2019-04-22T09:30:09.489Z,4544.00
2019-04-22T09:31:06.709Z,4548.00
2019-04-22T09:33:11.132Z,4548.00
2019-04-22T09:33:59.022Z,4580.00
2019-04-22T09:35:04.376Z,4536.00
2019-04-22T09:37:18.072Z,4632.00
2019-04-22T09:38:19.231Z,4652.00
2019-04-22T09:39:10.651Z,4684.00
2019-04-22T09:40:13.991Z,4700.00
2019-04-22T09:41:10.102Z,4712.00
2019-04-22T09:42:04.916Z,4704.00
2019-04-22T09:43:04.977Z,4724.00
2019-04-22T09:44:02.090Z,4752.00
2019-04-22T09:45:05.751Z,4776.00
2019-04-22T09:46:09.003Z,4752.00
2019-04-22T09:47:09.604Z,4784.00
2019-04-22T09:48:09.023Z,4768.00
2019-04-22T09:49:11.937Z,4812.00
2019-04-22T09:50:24.011Z,4844.00
2019-04-22T09:51:05.862Z,4864.00
2019-04-22T09:52:08.051Z,4868.00
2019-04-22T09:53:08.658Z,4892.00
2019-04-22T09:55:15.494Z,4940.00
2019-04-22T09:56:08.063Z,4912.00
2019-04-22T09:57:03.895Z,4944.00
2019-04-22T09:58:03.229Z,4948.00
2019-04-22T09:59:05.486Z,4988.00
2019-04-22T10:00:10.949Z,5008.00
2019-04-22T10:01:17.197Z,5032.00
2019-04-22T10:02:20.127Z,5056.00
2019-04-22T10:03:11.839Z,5048.00
2019-04-22T10:04:18.182Z,5048.00
2019-04-22T10:05:07.654Z,5036.00
2019-04-22T10:06:16.567Z,5072.00
2019-04-22T10:07:11.133Z,5060.00
2019-04-22T10:08:06.609Z,5040.00
2019-04-22T10:09:26.264Z,5072.00
2019-04-22T10:10:09.009Z,5084.00
2019-04-22T10:11:14.379Z,5132.00
2019-04-22T10:12:02.817Z,5156.00
2019-04-22T10:13:03.221Z,5160.00
2019-04-22T10:14:05.704Z,5184.00
2019-04-22T10:15:11.684Z,5204.00
2019-04-22T10:16:10.582Z,5220.00
2019-04-22T10:17:17.547Z,5256.00
2019-04-22T10:18:04.839Z,5252.00
2019-04-22T10:19:07.065Z,5232.00
2019-04-22T10:20:05.602Z,5284.00
2019-04-22T10:21:08.692Z,5312.00
2019-04-22T10:22:07.305Z,5296.00
2019-04-22T10:23:06.210Z,5336.00
2019-04-22T10:25:04.903Z,5356.00
2019-04-22T10:26:04.948Z,5400.00
2019-04-22T10:27:01.498Z,5404.00
2019-04-22T10:28:10.424Z,5420.00
2019-04-22T10:29:09.109Z,5472.00
2019-04-22T10:30:15.001Z,5492.00
2019-04-22T10:31:19.179Z,5180.00
2019-04-22T10:32:17.776Z,5224.00
2019-04-22T10:32:59.428Z,5120.00
2019-04-22T10:33:58.470Z,5140.00
2019-04-22T10:34:47.341Z,5136.00
2019-04-22T10:35:41.281Z,5348.00
2019-04-22T10:36:44.044Z,5272.00
2019-04-22T10:37:40.584Z,5240.00
2019-04-22T10:38:40.283Z,5292.00
2019-04-22T10:39:48.303Z,5316.00
2019-04-22T10:40:40.732Z,5328.00
2019-04-22T10:41:40.777Z,5060.00
2019-04-22T10:42:40.967Z,5340.00
2019-04-22T10:43:41.198Z,5516.00
2019-04-22T10:44:41.365Z,5304.00
2019-04-22T10:45:39.984Z,5340.00
2019-04-22T10:46:40.268Z,5424.00
2019-04-22T10:47:40.338Z,5380.00
2019-04-22T10:48:40.256Z,5272.00
2019-04-22T10:49:40.392Z,5484.00
2019-04-22T10:50:41.088Z,5532.00
2019-04-22T10:51:40.404Z,5516.00
2019-04-22T10:52:39.802Z,5532.00
2019-04-22T10:53:39.789Z,5540.00
2019-04-22T10:54:41.213Z,5600.00
2019-04-22T10:55:42.176Z,5628.00
2019-04-22T10:56:40.773Z,5596.00
2019-04-22T10:57:40.998Z,5464.00
2019-04-22T10:58:40.425Z,5608.00
2019-04-22T10:59:40.791Z,5648.00
2019-04-22T11:00:39.809Z,5756.00
2019-04-22T11:01:40.336Z,5732.00
2019-04-22T11:02:39.690Z,5788.00
2019-04-22T11:03:39.676Z,5828.00
2019-04-22T11:04:40.468Z,5780.00
2019-04-22T11:05:39.954Z,5788.00
2019-04-22T11:06:48.697Z,5872.00
2019-04-22T11:07:47.607Z,5832.00
2019-04-22T11:08:46.730Z,5772.00
2019-04-22T11:09:49.322Z,6072.00
2019-04-22T11:10:56.409Z,6116.00
2019-04-22T11:11:48.725Z,6176.00
2019-04-22T11:12:41.211Z,6204.00
2019-04-22T11:13:39.931Z,6220.00
2019-04-22T11:14:42.764Z,6296.00
2019-04-22T11:15:40.466Z,6312.00
2019-04-22T11:16:39.648Z,6368.00
2019-04-22T11:17:39.732Z,6324.00
2019-04-22T11:18:39.515Z,6376.00
2019-04-22T11:19:39.551Z,6416.00
2019-04-22T11:20:39.846Z,6420.00
2019-04-22T11:21:39.483Z,6436.00
2019-04-22T11:22:40.747Z,6456.00
2019-04-22T11:23:40.711Z,6608.00
2019-04-22T11:24:39.458Z,6560.00
2019-04-22T11:25:39.652Z,6644.00
2019-04-22T11:26:40.948Z,6672.00
2019-04-22T11:27:39.445Z,6680.00
2019-04-22T11:28:39.403Z,6748.00
2019-04-22T11:29:39.454Z,6816.00
2019-04-22T11:30:40.618Z,6848.00
2019-04-22T11:31:39.375Z,6880.00
2019-04-22T11:32:40.414Z,6940.00
2019-04-22T11:33:40.627Z,7084.00
2019-04-22T11:34:39.517Z,7156.00
2019-04-22T11:35:39.653Z,7168.00
2019-04-22T11:36:40.773Z,84320.00
2019-04-22T11:37:40.698Z,91008.00
2019-04-22T11:38:48.645Z,91424.00
2019-04-22T11:39:40.616Z,89792.00
2019-04-22T11:40:43.677Z,88448.00
2019-04-22T11:41:40.256Z,89280.00
2019-04-22T11:42:40.572Z,88480.00
2019-04-22T11:43:39.250Z,88160.00
2019-04-22T11:44:39.241Z,89952.00
2019-04-22T11:45:39.672Z,89664.00
2019-04-22T11:46:39.385Z,90176.00
2019-04-22T11:47:39.370Z,91680.00
2019-04-22T11:48:40.103Z,94912.00
2019-04-22T11:49:39.706Z,99168.00
2019-04-22T11:50:40.001Z,93920.00
2019-04-22T11:51:40.199Z,91136.00
2019-04-22T11:52:40.500Z,89792.00
2019-04-22T11:53:40.742Z,90464.00
2019-04-22T11:54:39.179Z,94528.00
2019-04-22T11:55:40.428Z,100544.00
2019-04-22T11:56:39.207Z,101312.00
2019-04-22T11:57:39.280Z,95488.00
2019-04-22T11:58:39.158Z,91552.00
2019-04-22T11:59:40.580Z,91296.00
2019-04-22T12:00:39.156Z,95616.00
2019-04-22T12:01:39.142Z,97536.00
2019-04-22T12:02:40.822Z,97376.00
2019-04-22T12:03:39.996Z,98048.00
2019-04-22T12:04:40.161Z,97792.00
2019-04-22T12:05:39.834Z,99136.00
2019-04-22T12:06:40.118Z,99520.00
2019-04-22T12:07:41.045Z,97952.00
2019-04-22T12:08:39.671Z,94592.00
2019-04-22T12:09:39.612Z,92320.00
2019-04-22T12:10:46.821Z,92288.00
2019-04-22T12:11:40.489Z,94496.00
2019-04-22T12:12:39.714Z,95424.00
2019-04-22T12:13:39.961Z,95616.00
2019-04-22T12:14:40.138Z,96096.00
2019-04-22T12:15:40.632Z,98816.00
2019-04-22T12:16:39.486Z,99040.00
2019-04-22T12:17:40.444Z,99296.00
2019-04-22T12:18:39.605Z,96000.00
2019-04-22T12:19:40.100Z,89920.00
2019-04-22T12:20:39.305Z,87968.00
2019-04-22T12:21:39.386Z,90496.00
2019-04-22T12:22:39.098Z,97728.00
2019-04-22T12:23:39.220Z,101952.00
2019-04-22T12:24:40.461Z,99264.00
2019-04-22T12:25:47.603Z,97312.00
2019-04-22T12:26:40.052Z,89216.00
2019-04-22T12:27:39.096Z,88160.00
2019-04-22T12:28:39.271Z,91424.00
2019-04-22T12:29:39.093Z,93088.00
2019-04-22T12:30:39.413Z,96704.00
2019-04-22T12:31:39.924Z,92672.00
2019-04-22T12:32:39.206Z,95168.00
2019-04-22T12:33:39.311Z,93184.00
2019-04-22T12:34:39.702Z,94368.00
2019-04-22T12:35:39.091Z,90112.00
2019-04-22T12:36:40.383Z,81632.00
2019-04-22T12:37:47.054Z,77856.00
2019-04-22T12:38:39.887Z,77920.00
2019-04-22T12:39:39.331Z,82784.00
2019-04-22T12:40:47.608Z,87520.00
2019-04-22T12:41:40.148Z,94400.00
2019-04-22T12:42:39.382Z,91488.00
2019-04-22T12:43:39.082Z,86432.00
2019-04-22T12:44:41.784Z,78496.00
2019-04-22T12:45:40.372Z,81664.00
2019-04-22T12:46:39.080Z,86048.00
2019-04-22T12:47:40.277Z,84896.00
2019-04-22T12:48:39.295Z,84672.00
2019-04-22T12:49:42.058Z,54464.00
2019-04-22T12:50:42.450Z,16448.00
2019-04-22T12:51:39.084Z,12908.00
2019-04-22T12:52:47.827Z,12248.00
2019-04-22T12:53:40.176Z,11892.00
2019-04-22T12:54:39.346Z,11456.00
2019-04-22T12:55:39.697Z,11092.00
2019-04-22T12:56:39.536Z,10692.00
2019-04-22T12:57:39.071Z,9948.00
2019-04-22T12:58:39.069Z,9988.00
2019-04-22T12:59:39.777Z,9648.00
2019-04-22T13:00:40.352Z,9260.00
2019-04-22T13:01:39.251Z,9032.00
2019-04-22T13:02:39.061Z,8840.00
2019-04-22T13:03:40.248Z,8540.00
2019-04-22T13:04:40.445Z,8380.00
2019-04-22T13:05:39.050Z,8084.00
2019-04-22T13:06:39.911Z,7912.00
2019-04-22T13:07:39.912Z,7704.00
2019-04-22T13:08:39.050Z,7556.00
2019-04-22T13:09:39.101Z,7372.00
2019-04-22T13:10:49.455Z,7220.00
2019-04-22T13:11:40.380Z,7156.00
2019-04-22T13:12:39.211Z,7020.00
2019-04-22T13:13:39.027Z,6876.00
2019-04-22T13:14:39.176Z,6752.00
2019-04-22T13:15:39.250Z,6732.00
2019-04-22T13:16:39.018Z,6544.00
2019-04-22T13:17:39.866Z,6152.00
2019-04-22T13:18:47.269Z,6248.00
2019-04-22T13:19:40.378Z,6264.00
2019-04-22T13:20:38.993Z,6140.00
2019-04-22T13:21:38.989Z,6124.00
2019-04-22T13:22:38.989Z,6132.00
2019-04-22T13:23:39.069Z,5988.00
2019-04-22T13:24:39.697Z,5948.00
2019-04-22T13:25:39.084Z,5896.00
2019-04-22T13:26:38.960Z,5888.00
2019-04-22T13:27:39.315Z,5812.00
2019-04-22T13:28:39.087Z,5764.00
2019-04-22T13:29:39.250Z,5728.00
2019-04-22T13:30:38.942Z,5668.00
2019-04-22T13:31:40.360Z,5644.00
2019-04-22T13:32:38.926Z,5540.00
2019-04-22T13:33:38.943Z,5572.00
2019-04-22T13:34:45.688Z,5444.00
2019-04-22T13:35:39.459Z,5440.00
2019-04-22T13:36:41.566Z,5368.00
2019-04-22T13:37:39.063Z,5316.00
2019-04-22T13:38:38.882Z,5552.00
2019-04-22T13:39:39.054Z,5780.00
2019-04-22T13:40:55.712Z,5728.00
2019-04-22T13:41:46.378Z,5652.00
2019-04-22T13:42:38.849Z,5624.00
2019-04-22T13:43:38.853Z,5656.00
2019-04-22T13:44:39.683Z,5488.00
2019-04-22T13:45:40.632Z,5528.00
2019-04-22T13:46:59.190Z,5536.00
2019-04-22T13:47:56.228Z,5532.00
2019-04-22T13:48:58.952Z,5548.00
2019-04-22T13:50:28.226Z,5508.00
2019-04-22T13:52:18.831Z,5488.00
2019-04-22T13:53:26.230Z,5400.00
2019-04-22T13:55:02.134Z,5264.00
2019-04-22T13:56:07.220Z,5284.00
2019-04-22T13:56:57.146Z,5288.00
2019-04-22T13:57:54.069Z,5232.00
2019-04-22T13:58:52.875Z,5216.00
2019-04-22T13:59:45.978Z,5144.00
2019-04-22T14:00:38.698Z,5120.00
2019-04-22T14:01:38.705Z,5164.00
2019-04-22T14:02:39.928Z,5088.00
2019-04-22T14:03:39.840Z,5088.00
2019-04-22T14:04:38.816Z,5084.00
2019-04-22T14:05:38.653Z,5108.00
2019-04-22T14:06:38.851Z,5052.00